createdAt,value
2023-04-16T21:00:17.146Z,57.03
2023-04-16T21:02:44.722Z,57.81
2023-04-16T21:05:14.469Z,58.13
2023-04-16T21:07:42.339Z,57.95
2023-04-16T21:10:10.793Z,57.92
2023-04-16T21:12:39.434Z,58.59
2023-04-16T21:15:07.571Z,58.71
2023-04-16T21:17:34.847Z,59.04
2023-04-16T21:20:02.525Z,59.17
2023-04-16T21:22:30.075Z,58.80
2023-04-16T21:24:57.358Z,59.13
2023-04-16T21:27:24.697Z,59.03
2023-04-16T21:29:52.250Z,59.15
2023-04-16T21:32:19.592Z,59.44
2023-04-16T21:34:47.051Z,59.90
2023-04-16T21:37:14.300Z,60.19
2023-04-16T21:39:41.550Z,60.28
2023-04-16T21:42:08.842Z,60.52
2023-04-16T21:44:36.298Z,60.51
2023-04-16T21:47:03.819Z,60.40
2023-04-16T21:49:31.262Z,60.28
2023-04-16T21:52:20.644Z,60.34
2023-04-16T21:54:48.036Z,60.54
2023-04-16T21:57:15.270Z,60.24
2023-04-16T21:59:42.549Z,60.64
2023-04-16T22:02:09.959Z,60.12
2023-04-16T22:04:37.756Z,60.57
2023-04-16T22:07:09.239Z,60.63
2023-04-16T22:09:36.732Z,60.78
2023-04-16T22:12:07.126Z,61.11
2023-04-16T22:14:42.103Z,61.11
2023-04-16T22:17:15.201Z,61.81
2023-04-16T22:19:42.750Z,61.55
2023-04-16T22:22:10.158Z,61.61
2023-04-16T22:24:37.474Z,61.94
2023-04-16T22:27:04.781Z,61.93
2023-04-16T22:29:32.064Z,61.59
2023-04-16T22:32:00.992Z,61.40
2023-04-16T22:34:28.416Z,62.62
2023-04-16T22:36:56.569Z,62.52
2023-04-16T22:39:23.793Z,62.96
2023-04-16T22:41:51.868Z,62.82
2023-04-16T22:44:19.178Z,62.81
2023-04-16T22:46:47.178Z,63.44
2023-04-16T22:49:14.460Z,63.32
2023-04-16T22:51:41.928Z,63.79
2023-04-16T22:54:13.646Z,63.81
2023-04-16T22:56:41.564Z,64.00
2023-04-16T22:59:09.108Z,64.12
2023-04-16T23:01:36.852Z,64.92
2023-04-16T23:04:04.322Z,64.77
2023-04-16T23:06:31.886Z,64.45
2023-04-16T23:08:59.188Z,64.61
2023-04-16T23:11:26.397Z,64.22
2023-04-16T23:13:53.845Z,64.15
2023-04-16T23:16:21.248Z,64.55
2023-04-16T23:18:48.581Z,64.41
2023-04-16T23:21:15.925Z,65.05
2023-04-16T23:23:43.150Z,65.65
2023-04-16T23:26:10.592Z,65.51
2023-04-16T23:28:37.920Z,65.59
2023-04-16T23:31:07.139Z,65.89
2023-04-16T23:33:34.849Z,66.03
2023-04-16T23:36:02.178Z,66.38
2023-04-16T23:38:29.749Z,66.57
2023-04-16T23:40:57.085Z,67.07
2023-04-16T23:43:24.552Z,67.12
2023-04-16T23:45:51.873Z,67.12
2023-04-16T23:48:19.327Z,66.93
2023-04-16T23:50:46.858Z,67.27
2023-04-16T23:53:14.295Z,67.42
2023-04-16T23:55:41.666Z,67.98
2023-04-16T23:58:08.968Z,67.54
